sensor_id;sensor_type;location;lat;lon;timestamp;P1;durP1;ratioP1;P2;durP2;ratioP2
64710;SDS011;51139;45.626;6.850;2023-07-20T00:00:00;5.68;;;3.30;;
64710;SDS011;51139;45.626;6.850;2023-07-20T00:02:26;5.47;;;3.63;;
64710;SDS011;51139;45.626;6.850;2023-07-20T00:04:51;7.32;;;3.90;;
64710;SDS011;51139;45.626;6.850;2023-07-20T00:07:16;5.25;;;3.05;;
64710;SDS011;51139;45.626;6.850;2023-07-20T00:09:42;7.47;;;3.42;;
64710;SDS011;51139;45.626;6.850;2023-07-20T00:12:07;6.38;;;3.28;;
64710;SDS011;51139;45.626;6.850;2023-07-20T00:14:33;5.95;;;3.30;;
64710;SDS011;51139;45.626;6.850;2023-07-20T00:16:58;5.88;;;3.53;;
64710;SDS011;51139;45.626;6.850;2023-07-20T00:19:24;8.07;;;3.75;;
64710;SDS011;51139;45.626;6.850;2023-07-20T00:21:50;8.60;;;4.18;;
64710;SDS011;51139;45.626;6.850;2023-07-20T00:24:16;7.68;;;4.10;;
64710;SDS011;51139;45.626;6.850;2023-07-20T00:26:41;7.72;;;3.60;;
64710;SDS011;51139;45.626;6.850;2023-07-20T00:29:07;7.22;;;3.72;;
64710;SDS011;51139;45.626;6.850;2023-07-20T00:31:32;6.75;;;3.55;;
64710;SDS011;51139;45.626;6.850;2023-07-20T00:33:59;5.47;;;3.40;;
64710;SDS011;51139;45.626;6.850;2023-07-20T00:36:25;6.03;;;3.70;;
64710;SDS011;51139;45.626;6.850;2023-07-20T00:38:50;6.07;;;3.63;;
64710;SDS011;51139;45.626;6.850;2023-07-20T00:41:16;6.35;;;3.70;;
64710;SDS011;51139;45.626;6.850;2023-07-20T00:43:41;6.35;;;3.67;;
64710;SDS011;51139;45.626;6.850;2023-07-20T00:46:07;6.05;;;3.47;;
64710;SDS011;51139;45.626;6.850;2023-07-20T00:48:33;5.53;;;3.05;;
64710;SDS011;51139;45.626;6.850;2023-07-20T00:50:59;7.07;;;3.78;;
64710;SDS011;51139;45.626;6.850;2023-07-20T00:53:26;6.65;;;3.00;;
64710;SDS011;51139;45.626;6.850;2023-07-20T00:55:52;4.15;;;2.90;;
64710;SDS011;51139;45.626;6.850;2023-07-20T00:58:17;4.82;;;2.90;;
64710;SDS011;51139;45.626;6.850;2023-07-20T01:00:43;5.43;;;3.20;;
64710;SDS011;51139;45.626;6.850;2023-07-20T01:03:08;6.05;;;3.50;;
64710;SDS011;51139;45.626;6.850;2023-07-20T01:08:48;5.43;;;3.50;;
64710;SDS011;51139;45.626;6.850;2023-07-20T01:14:00;5.95;;;3.20;;
64710;SDS011;51139;45.626;6.850;2023-07-20T01:16:27;4.43;;;2.85;;
64710;SDS011;51139;45.626;6.850;2023-07-20T01:18:53;4.57;;;3.25;;
64710;SDS011;51139;45.626;6.850;2023-07-20T01:21:21;6.13;;;3.42;;
64710;SDS011;51139;45.626;6.850;2023-07-20T01:24:00;8.80;;;3.70;;
64710;SDS011;51139;45.626;6.850;2023-07-20T01:26:46;7.15;;;3.97;;
64710;SDS011;51139;45.626;6.850;2023-07-20T01:29:43;7.18;;;3.53;;
64710;SDS011;51139;45.626;6.850;2023-07-20T01:32:41;5.10;;;3.25;;
64710;SDS011;51139;45.626;6.850;2023-07-20T01:35:07;6.47;;;3.50;;
64710;SDS011;51139;45.626;6.850;2023-07-20T01:37:39;4.68;;;3.08;;
64710;SDS011;51139;45.626;6.850;2023-07-20T01:40:10;5.35;;;3.30;;
64710;SDS011;51139;45.626;6.850;2023-07-20T01:42:36;5.90;;;3.40;;
64710;SDS011;51139;45.626;6.850;2023-07-20T01:45:02;4.93;;;3.00;;
64710;SDS011;51139;45.626;6.850;2023-07-20T01:47:27;7.07;;;3.35;;
64710;SDS011;51139;45.626;6.850;2023-07-20T01:49:53;5.65;;;3.40;;
64710;SDS011;51139;45.626;6.850;2023-07-20T01:52:18;5.50;;;3.20;;
64710;SDS011;51139;45.626;6.850;2023-07-20T01:54:43;5.35;;;3.33;;
64710;SDS011;51139;45.626;6.850;2023-07-20T01:57:08;5.03;;;3.13;;
64710;SDS011;51139;45.626;6.850;2023-07-20T01:59:34;5.15;;;3.33;;
64710;SDS011;51139;45.626;6.850;2023-07-20T02:01:59;5.25;;;3.55;;
64710;SDS011;51139;45.626;6.850;2023-07-20T02:04:24;4.68;;;3.15;;
64710;SDS011;51139;45.626;6.850;2023-07-20T02:06:50;6.38;;;3.50;;
64710;SDS011;51139;45.626;6.850;2023-07-20T02:09:15;5.80;;;3.15;;
64710;SDS011;51139;45.626;6.850;2023-07-20T02:11:40;6.50;;;3.55;;
64710;SDS011;51139;45.626;6.850;2023-07-20T02:14:06;5.82;;;3.22;;
64710;SDS011;51139;45.626;6.850;2023-07-20T02:16:31;5.40;;;3.30;;
64710;SDS011;51139;45.626;6.850;2023-07-20T02:18:57;8.77;;;3.53;;
64710;SDS011;51139;45.626;6.850;2023-07-20T02:21:23;4.95;;;3.50;;
64710;SDS011;51139;45.626;6.850;2023-07-20T02:23:48;5.38;;;3.30;;
64710;SDS011;51139;45.626;6.850;2023-07-20T02:26:14;5.05;;;3.40;;
64710;SDS011;51139;45.626;6.850;2023-07-20T02:28:39;4.68;;;3.25;;
64710;SDS011;51139;45.626;6.850;2023-07-20T02:31:06;5.50;;;3.30;;
64710;SDS011;51139;45.626;6.850;2023-07-20T02:33:31;6.35;;;3.28;;
64710;SDS011;51139;45.626;6.850;2023-07-20T02:35:57;4.38;;;3.00;;
64710;SDS011;51139;45.626;6.850;2023-07-20T02:38:22;4.47;;;3.20;;
64710;SDS011;51139;45.626;6.850;2023-07-20T02:40:47;5.60;;;3.38;;
64710;SDS011;51139;45.626;6.850;2023-07-20T02:43:13;4.95;;;3.63;;
64710;SDS011;51139;45.626;6.850;2023-07-20T02:45:41;5.95;;;3.17;;
64710;SDS011;51139;45.626;6.850;2023-07-20T02:48:07;5.38;;;3.22;;
64710;SDS011;51139;45.626;6.850;2023-07-20T02:50:33;5.28;;;3.42;;
64710;SDS011;51139;45.626;6.850;2023-07-20T02:52:59;5.97;;;3.17;;
64710;SDS011;51139;45.626;6.850;2023-07-20T02:55:25;4.88;;;3.20;;
64710;SDS011;51139;45.626;6.850;2023-07-20T02:57:50;6.10;;;3.25;;
64710;SDS011;51139;45.626;6.850;2023-07-20T03:00:15;4.38;;;2.92;;
64710;SDS011;51139;45.626;6.850;2023-07-20T03:02:41;6.90;;;3.05;;
64710;SDS011;51139;45.626;6.850;2023-07-20T03:05:06;5.75;;;3.10;;
64710;SDS011;51139;45.626;6.850;2023-07-20T03:07:32;4.97;;;2.97;;
64710;SDS011;51139;45.626;6.850;2023-07-20T03:09:58;4.65;;;2.90;;
64710;SDS011;51139;45.626;6.850;2023-07-20T03:12:23;7.38;;;3.10;;
64710;SDS011;51139;45.626;6.850;2023-07-20T03:14:49;7.15;;;3.05;;
64710;SDS011;51139;45.626;6.850;2023-07-20T03:17:15;6.35;;;3.20;;
64710;SDS011;51139;45.626;6.850;2023-07-20T03:19:40;5.80;;;3.03;;
64710;SDS011;51139;45.626;6.850;2023-07-20T03:22:06;4.07;;;2.72;;
64710;SDS011;51139;45.626;6.850;2023-07-20T03:24:32;4.50;;;2.78;;
64710;SDS011;51139;45.626;6.850;2023-07-20T03:26:58;6.10;;;2.95;;
64710;SDS011;51139;45.626;6.850;2023-07-20T03:29:23;5.28;;;3.10;;
64710;SDS011;51139;45.626;6.850;2023-07-20T03:31:48;5.95;;;3.10;;
64710;SDS011;51139;45.626;6.850;2023-07-20T03:34:14;6.50;;;3.50;;
64710;SDS011;51139;45.626;6.850;2023-07-20T03:36:39;5.00;;;3.28;;
64710;SDS011;51139;45.626;6.850;2023-07-20T03:39:04;4.90;;;3.03;;
64710;SDS011;51139;45.626;6.850;2023-07-20T03:41:30;4.40;;;2.70;;
64710;SDS011;51139;45.626;6.850;2023-07-20T03:43:55;4.35;;;3.08;;
64710;SDS011;51139;45.626;6.850;2023-07-20T03:46:20;4.78;;;2.75;;
64710;SDS011;51139;45.626;6.850;2023-07-20T03:48:46;5.68;;;2.97;;
64710;SDS011;51139;45.626;6.850;2023-07-20T03:51:11;5.13;;;2.78;;
64710;SDS011;51139;45.626;6.850;2023-07-20T03:53:36;4.35;;;2.80;;
64710;SDS011;51139;45.626;6.850;2023-07-20T03:56:02;7.03;;;3.45;;
64710;SDS011;51139;45.626;6.850;2023-07-20T03:58:28;5.50;;;3.03;;
64710;SDS011;51139;45.626;6.850;2023-07-20T04:00:54;6.13;;;3.30;;
64710;SDS011;51139;45.626;6.850;2023-07-20T04:03:20;4.90;;;3.33;;
64710;SDS011;51139;45.626;6.850;2023-07-20T04:05:45;6.43;;;3.13;;
64710;SDS011;51139;45.626;6.850;2023-07-20T04:08:11;5.47;;;3.15;;
64710;SDS011;51139;45.626;6.850;2023-07-20T04:10:37;5.85;;;2.90;;
64710;SDS011;51139;45.626;6.850;2023-07-20T04:13:03;4.20;;;2.70;;
64710;SDS011;51139;45.626;6.850;2023-07-20T04:15:29;4.80;;;3.25;;
64710;SDS011;51139;45.626;6.850;2023-07-20T04:17:55;5.97;;;3.35;;
64710;SDS011;51139;45.626;6.850;2023-07-20T04:20:21;5.95;;;3.17;;
64710;SDS011;51139;45.626;6.850;2023-07-20T04:22:47;5.70;;;3.20;;
64710;SDS011;51139;45.626;6.850;2023-07-20T04:25:12;5.88;;;3.33;;
64710;SDS011;51139;45.626;6.850;2023-07-20T04:27:38;6.13;;;3.33;;
64710;SDS011;51139;45.626;6.850;2023-07-20T04:30:03;5.90;;;3.25;;
64710;SDS011;51139;45.626;6.850;2023-07-20T04:32:31;7.32;;;3.90;;
64710;SDS011;51139;45.626;6.850;2023-07-20T04:34:58;7.53;;;4.03;;
64710;SDS011;51139;45.626;6.850;2023-07-20T04:37:24;5.90;;;3.90;;
64710;SDS011;51139;45.626;6.850;2023-07-20T04:39:49;5.38;;;3.72;;
64710;SDS011;51139;45.626;6.850;2023-07-20T04:42:15;6.93;;;3.92;;
64710;SDS011;51139;45.626;6.850;2023-07-20T04:44:41;6.07;;;4.03;;
64710;SDS011;51139;45.626;6.850;2023-07-20T04:47:06;7.82;;;4.15;;
64710;SDS011;51139;45.626;6.850;2023-07-20T04:49:31;6.13;;;3.90;;
64710;SDS011;51139;45.626;6.850;2023-07-20T04:51:57;6.63;;;4.28;;
64710;SDS011;51139;45.626;6.850;2023-07-20T04:54:22;6.07;;;4.07;;
64710;SDS011;51139;45.626;6.850;2023-07-20T04:56:47;9.15;;;4.68;;
64710;SDS011;51139;45.626;6.850;2023-07-20T04:59:13;8.63;;;4.70;;
64710;SDS011;51139;45.626;6.850;2023-07-20T05:01:38;6.43;;;4.45;;
64710;SDS011;51139;45.626;6.850;2023-07-20T05:04:04;8.07;;;4.20;;
64710;SDS011;51139;45.626;6.850;2023-07-20T05:06:29;7.75;;;4.53;;
64710;SDS011;51139;45.626;6.850;2023-07-20T05:08:54;7.65;;;4.05;;
64710;SDS011;51139;45.626;6.850;2023-07-20T05:11:20;7.13;;;4.13;;
64710;SDS011;51139;45.626;6.850;2023-07-20T05:13:45;6.63;;;4.35;;
64710;SDS011;51139;45.626;6.850;2023-07-20T05:16:11;8.05;;;4.22;;
64710;SDS011;51139;45.626;6.850;2023-07-20T05:18:36;10.35;;;4.30;;
64710;SDS011;51139;45.626;6.850;2023-07-20T05:21:01;7.85;;;4.40;;
64710;SDS011;51139;45.626;6.850;2023-07-20T05:23:27;10.40;;;4.10;;
64710;SDS011;51139;45.626;6.850;2023-07-20T05:25:56;7.07;;;4.07;;
64710;SDS011;51139;45.626;6.850;2023-07-20T05:28:22;8.98;;;4.20;;
64710;SDS011;51139;45.626;6.850;2023-07-20T05:30:49;7.63;;;4.35;;
64710;SDS011;51139;45.626;6.850;2023-07-20T05:33:16;6.40;;;4.10;;
64710;SDS011;51139;45.626;6.850;2023-07-20T05:35:42;7.25;;;3.67;;
64710;SDS011;51139;45.626;6.850;2023-07-20T05:38:08;5.68;;;4.03;;
64710;SDS011;51139;45.626;6.850;2023-07-20T05:40:35;5.82;;;3.80;;
64710;SDS011;51139;45.626;6.850;2023-07-20T05:43:02;8.48;;;3.70;;
64710;SDS011;51139;45.626;6.850;2023-07-20T05:45:28;5.50;;;3.25;;
64710;SDS011;51139;45.626;6.850;2023-07-20T05:47:53;5.75;;;3.88;;
64710;SDS011;51139;45.626;6.850;2023-07-20T05:50:19;7.90;;;4.10;;
64710;SDS011;51139;45.626;6.850;2023-07-20T05:52:44;5.95;;;3.40;;
64710;SDS011;51139;45.626;6.850;2023-07-20T05:55:09;7.53;;;4.15;;
64710;SDS011;51139;45.626;6.850;2023-07-20T05:57:35;5.65;;;4.05;;
64710;SDS011;51139;45.626;6.850;2023-07-20T06:00:00;7.47;;;3.92;;
64710;SDS011;51139;45.626;6.850;2023-07-20T06:02:26;5.43;;;3.92;;
64710;SDS011;51139;45.626;6.850;2023-07-20T06:04:51;6.53;;;3.88;;
64710;SDS011;51139;45.626;6.850;2023-07-20T06:07:17;7.03;;;3.90;;
64710;SDS011;51139;45.626;6.850;2023-07-20T06:09:42;5.22;;;3.15;;
64710;SDS011;51139;45.626;6.850;2023-07-20T06:12:07;6.90;;;3.83;;
64710;SDS011;51139;45.626;6.850;2023-07-20T06:14:33;6.68;;;3.80;;
64710;SDS011;51139;45.626;6.850;2023-07-20T06:16:59;6.03;;;3.60;;
64710;SDS011;51139;45.626;6.850;2023-07-20T06:19:24;6.35;;;3.80;;
64710;SDS011;51139;45.626;6.850;2023-07-20T06:21:50;5.57;;;3.72;;
64710;SDS011;51139;45.626;6.850;2023-07-20T06:24:16;6.10;;;3.33;;
64710;SDS011;51139;45.626;6.850;2023-07-20T06:26:42;7.57;;;3.40;;
64710;SDS011;51139;45.626;6.850;2023-07-20T06:29:07;6.32;;;3.75;;
64710;SDS011;51139;45.626;6.850;2023-07-20T06:31:36;6.53;;;3.72;;
64710;SDS011;51139;45.626;6.850;2023-07-20T06:34:02;6.90;;;3.67;;
64710;SDS011;51139;45.626;6.850;2023-07-20T06:36:28;9.15;;;3.72;;
64710;SDS011;51139;45.626;6.850;2023-07-20T06:38:54;6.15;;;3.70;;
64710;SDS011;51139;45.626;6.850;2023-07-20T06:41:20;4.90;;;3.45;;
64710;SDS011;51139;45.626;6.850;2023-07-20T06:43:46;6.03;;;3.67;;
64710;SDS011;51139;45.626;6.850;2023-07-20T06:46:12;5.80;;;3.78;;
64710;SDS011;51139;45.626;6.850;2023-07-20T06:48:37;6.60;;;3.60;;
64710;SDS011;51139;45.626;6.850;2023-07-20T06:51:03;8.70;;;3.85;;
64710;SDS011;51139;45.626;6.850;2023-07-20T06:53:29;8.00;;;3.85;;
64710;SDS011;51139;45.626;6.850;2023-07-20T06:55:55;5.07;;;3.55;;
64710;SDS011;51139;45.626;6.850;2023-07-20T06:58:23;6.80;;;3.42;;
64710;SDS011;51139;45.626;6.850;2023-07-20T07:00:49;6.50;;;3.58;;
64710;SDS011;51139;45.626;6.850;2023-07-20T07:03:14;5.97;;;3.65;;
64710;SDS011;51139;45.626;6.850;2023-07-20T07:05:40;5.10;;;3.08;;
64710;SDS011;51139;45.626;6.850;2023-07-20T07:08:05;6.05;;;3.70;;
64710;SDS011;51139;45.626;6.850;2023-07-20T07:10:31;5.43;;;3.83;;
64710;SDS011;51139;45.626;6.850;2023-07-20T07:12:57;6.03;;;3.28;;
64710;SDS011;51139;45.626;6.850;2023-07-20T07:15:22;6.28;;;3.70;;
64710;SDS011;51139;45.626;6.850;2023-07-20T07:17:47;5.85;;;3.08;;
64710;SDS011;51139;45.626;6.850;2023-07-20T07:20:13;4.68;;;2.85;;
64710;SDS011;51139;45.626;6.850;2023-07-20T07:22:38;4.57;;;2.80;;
64710;SDS011;51139;45.626;6.850;2023-07-20T07:25:04;4.82;;;2.80;;
64710;SDS011;51139;45.626;6.850;2023-07-20T07:27:29;4.85;;;3.28;;
64710;SDS011;51139;45.626;6.850;2023-07-20T07:29:55;6.05;;;3.85;;
64710;SDS011;51139;45.626;6.850;2023-07-20T07:32:20;5.40;;;3.45;;
64710;SDS011;51139;45.626;6.850;2023-07-20T07:34:46;5.38;;;3.35;;
64710;SDS011;51139;45.626;6.850;2023-07-20T07:37:12;4.88;;;3.60;;
64710;SDS011;51139;45.626;6.850;2023-07-20T07:39:38;5.65;;;3.53;;
64710;SDS011;51139;45.626;6.850;2023-07-20T07:42:04;5.60;;;3.85;;
64710;SDS011;51139;45.626;6.850;2023-07-20T07:44:29;5.75;;;3.83;;
64710;SDS011;51139;45.626;6.850;2023-07-20T07:46:55;4.90;;;3.92;;
64710;SDS011;51139;45.626;6.850;2023-07-20T07:49:20;6.85;;;3.63;;
64710;SDS011;51139;45.626;6.850;2023-07-20T07:51:45;6.85;;;3.40;;
64710;SDS011;51139;45.626;6.850;2023-07-20T07:54:11;6.68;;;3.55;;
64710;SDS011;51139;45.626;6.850;2023-07-20T07:56:36;5.95;;;3.63;;
64710;SDS011;51139;45.626;6.850;2023-07-20T07:59:02;5.72;;;3.50;;
64710;SDS011;51139;45.626;6.850;2023-07-20T08:01:28;7.07;;;3.67;;
64710;SDS011;51139;45.626;6.850;2023-07-20T08:03:53;5.57;;;3.90;;
64710;SDS011;51139;45.626;6.850;2023-07-20T08:06:18;4.95;;;3.50;;
64710;SDS011;51139;45.626;6.850;2023-07-20T08:08:44;5.03;;;3.75;;
64710;SDS011;51139;45.626;6.850;2023-07-20T08:11:09;6.05;;;3.72;;
64710;SDS011;51139;45.626;6.850;2023-07-20T08:13:35;5.18;;;3.60;;
64710;SDS011;51139;45.626;6.850;2023-07-20T08:16:00;5.32;;;3.33;;
64710;SDS011;51139;45.626;6.850;2023-07-20T08:18:27;5.47;;;3.60;;
64710;SDS011;51139;45.626;6.850;2023-07-20T08:20:52;5.38;;;3.65;;
64710;SDS011;51139;45.626;6.850;2023-07-20T08:23:18;6.35;;;4.05;;
64710;SDS011;51139;45.626;6.850;2023-07-20T08:25:43;7.38;;;3.92;;
64710;SDS011;51139;45.626;6.850;2023-07-20T08:28:14;7.63;;;4.20;;
64710;SDS011;51139;45.626;6.850;2023-07-20T08:30:44;7.38;;;3.90;;
64710;SDS011;51139;45.626;6.850;2023-07-20T08:33:14;7.30;;;3.65;;
64710;SDS011;51139;45.626;6.850;2023-07-20T08:35:40;5.47;;;4.00;;
64710;SDS011;51139;45.626;6.850;2023-07-20T08:38:06;7.32;;;4.15;;
64710;SDS011;51139;45.626;6.850;2023-07-20T08:40:33;6.32;;;4.03;;
64710;SDS011;51139;45.626;6.850;2023-07-20T08:42:59;6.95;;;3.90;;
64710;SDS011;51139;45.626;6.850;2023-07-20T08:45:28;6.95;;;4.20;;
64710;SDS011;51139;45.626;6.850;2023-07-20T08:47:57;8.65;;;4.07;;
64710;SDS011;51139;45.626;6.850;2023-07-20T08:50:24;6.40;;;3.80;;
64710;SDS011;51139;45.626;6.850;2023-07-20T08:52:51;6.43;;;3.70;;
64710;SDS011;51139;45.626;6.850;2023-07-20T08:55:18;5.93;;;3.58;;
64710;SDS011;51139;45.626;6.850;2023-07-20T08:57:45;5.90;;;3.60;;
64710;SDS011;51139;45.626;6.850;2023-07-20T09:00:13;5.72;;;3.20;;
64710;SDS011;51139;45.626;6.850;2023-07-20T09:02:39;5.07;;;3.50;;
64710;SDS011;51139;45.626;6.850;2023-07-20T09:05:09;4.47;;;2.85;;
64710;SDS011;51139;45.626;6.850;2023-07-20T09:07:35;5.05;;;3.63;;
64710;SDS011;51139;45.626;6.850;2023-07-20T09:10:01;5.55;;;3.13;;
64710;SDS011;51139;45.626;6.850;2023-07-20T09:12:31;5.72;;;3.17;;
64710;SDS011;51139;45.626;6.850;2023-07-20T09:15:16;5.32;;;3.50;;
64710;SDS011;51139;45.626;6.850;2023-07-20T09:17:45;7.13;;;3.33;;
64710;SDS011;51139;45.626;6.850;2023-07-20T09:20:18;4.15;;;2.90;;
64710;SDS011;51139;45.626;6.850;2023-07-20T09:22:44;5.80;;;3.10;;
64710;SDS011;51139;45.626;6.850;2023-07-20T09:25:16;5.80;;;3.47;;
64710;SDS011;51139;45.626;6.850;2023-07-20T09:27:43;5.47;;;3.33;;
64710;SDS011;51139;45.626;6.850;2023-07-20T09:30:10;4.97;;;3.20;;
64710;SDS011;51139;45.626;6.850;2023-07-20T09:32:39;5.60;;;3.45;;
64710;SDS011;51139;45.626;6.850;2023-07-20T09:35:14;5.60;;;3.47;;
64710;SDS011;51139;45.626;6.850;2023-07-20T09:37:46;4.82;;;3.05;;
64710;SDS011;51139;45.626;6.850;2023-07-20T09:40:19;6.45;;;3.05;;
64710;SDS011;51139;45.626;6.850;2023-07-20T09:42:45;4.97;;;2.95;;
64710;SDS011;51139;45.626;6.850;2023-07-20T09:45:11;6.03;;;3.35;;
64710;SDS011;51139;45.626;6.850;2023-07-20T09:47:37;5.30;;;3.05;;
64710;SDS011;51139;45.626;6.850;2023-07-20T09:50:04;4.68;;;2.70;;
64710;SDS011;51139;45.626;6.850;2023-07-20T09:52:32;4.28;;;3.00;;
64710;SDS011;51139;45.626;6.850;2023-07-20T09:54:59;5.32;;;3.20;;
64710;SDS011;51139;45.626;6.850;2023-07-20T09:57:26;4.10;;;2.97;;
64710;SDS011;51139;45.626;6.850;2023-07-20T09:59:51;4.95;;;3.20;;
64710;SDS011;51139;45.626;6.850;2023-07-20T10:02:20;5.10;;;3.20;;
64710;SDS011;51139;45.626;6.850;2023-07-20T10:04:49;3.22;;;2.30;;
64710;SDS011;51139;45.626;6.850;2023-07-20T10:07:18;5.80;;;3.47;;
64710;SDS011;51139;45.626;6.850;2023-07-20T10:09:46;3.78;;;2.90;;
64710;SDS011;51139;45.626;6.850;2023-07-20T10:12:13;4.32;;;2.90;;
64710;SDS011;51139;45.626;6.850;2023-07-20T10:14:41;5.75;;;2.90;;
64710;SDS011;51139;45.626;6.850;2023-07-20T10:17:14;3.05;;;2.20;;
64710;SDS011;51139;45.626;6.850;2023-07-20T10:22:16;5.05;;;2.60;;
64710;SDS011;51139;45.626;6.850;2023-07-20T10:24:45;3.47;;;2.33;;
64710;SDS011;51139;45.626;6.850;2023-07-20T10:27:12;3.60;;;2.33;;
64710;SDS011;51139;45.626;6.850;2023-07-20T10:29:37;3.60;;;2.50;;
64710;SDS011;51139;45.626;6.850;2023-07-20T10:32:05;5.15;;;2.97;;
64710;SDS011;51139;45.626;6.850;2023-07-20T10:34:31;6.47;;;2.70;;
64710;SDS011;51139;45.626;6.850;2023-07-20T10:36:57;6.28;;;2.55;;
64710;SDS011;51139;45.626;6.850;2023-07-20T10:39:23;6.57;;;3.13;;
64710;SDS011;51139;45.626;6.850;2023-07-20T10:41:49;4.40;;;2.75;;
64710;SDS011;51139;45.626;6.850;2023-07-20T10:44:15;5.45;;;2.88;;
64710;SDS011;51139;45.626;6.850;2023-07-20T10:46:45;4.63;;;2.50;;
64710;SDS011;51139;45.626;6.850;2023-07-20T10:49:14;3.75;;;2.10;;
64710;SDS011;51139;45.626;6.850;2023-07-20T10:54:52;2.97;;;2.00;;
64710;SDS011;51139;45.626;6.850;2023-07-20T10:56:52;2.67;;;1.58;;
64710;SDS011;51139;45.626;6.850;2023-07-20T10:59:35;5.22;;;1.92;;
64710;SDS011;51139;45.626;6.850;2023-07-20T11:02:07;2.20;;;1.38;;
64710;SDS011;51139;45.626;6.850;2023-07-20T11:04:43;1.73;;;1.25;;
64710;SDS011;51139;45.626;6.850;2023-07-20T11:07:10;3.22;;;1.52;;
64710;SDS011;51139;45.626;6.850;2023-07-20T11:09:39;2.92;;;1.65;;
64710;SDS011;51139;45.626;6.850;2023-07-20T11:12:15;3.53;;;2.10;;
64710;SDS011;51139;45.626;6.850;2023-07-20T11:14:55;3.10;;;1.98;;
64710;SDS011;51139;45.626;6.850;2023-07-20T11:17:28;4.60;;;2.50;;
64710;SDS011;51139;45.626;6.850;2023-07-20T11:19:55;2.78;;;1.90;;
64710;SDS011;51139;45.626;6.850;2023-07-20T11:22:21;3.05;;;1.90;;
64710;SDS011;51139;45.626;6.850;2023-07-20T11:24:47;2.78;;;1.88;;
64710;SDS011;51139;45.626;6.850;2023-07-20T11:27:14;3.60;;;2.22;;
64710;SDS011;51139;45.626;6.850;2023-07-20T11:29:39;5.50;;;2.05;;
64710;SDS011;51139;45.626;6.850;2023-07-20T11:32:05;6.05;;;2.40;;
64710;SDS011;51139;45.626;6.850;2023-07-20T11:34:31;3.15;;;2.00;;
64710;SDS011;51139;45.626;6.850;2023-07-20T11:36:57;3.45;;;2.10;;
64710;SDS011;51139;45.626;6.850;2023-07-20T11:39:23;3.67;;;2.03;;
64710;SDS011;51139;45.626;6.850;2023-07-20T11:41:54;5.82;;;2.28;;
64710;SDS011;51139;45.626;6.850;2023-07-20T11:44:21;2.87;;;2.10;;
64710;SDS011;51139;45.626;6.850;2023-07-20T11:49:38;2.90;;;2.20;;
64710;SDS011;51139;45.626;6.850;2023-07-20T11:52:08;4.05;;;2.55;;
64710;SDS011;51139;45.626;6.850;2023-07-20T11:54:35;3.65;;;2.40;;
64710;SDS011;51139;45.626;6.850;2023-07-20T11:57:05;3.40;;;2.38;;
64710;SDS011;51139;45.626;6.850;2023-07-20T11:59:31;4.13;;;2.30;;
64710;SDS011;51139;45.626;6.850;2023-07-20T12:02:03;3.33;;;2.28;;
64710;SDS011;51139;45.626;6.850;2023-07-20T12:04:30;3.92;;;2.85;;
64710;SDS011;51139;45.626;6.850;2023-07-20T12:06:56;4.28;;;2.40;;
64710;SDS011;51139;45.626;6.850;2023-07-20T12:09:21;3.70;;;2.33;;
64710;SDS011;51139;45.626;6.850;2023-07-20T12:11:48;4.43;;;2.65;;
64710;SDS011;51139;45.626;6.850;2023-07-20T12:14:15;4.85;;;2.70;;
64710;SDS011;51139;45.626;6.850;2023-07-20T12:16:41;7.18;;;2.60;;
64710;SDS011;51139;45.626;6.850;2023-07-20T12:19:07;3.72;;;2.67;;
64710;SDS011;51139;45.626;6.850;2023-07-20T12:21:41;3.85;;;2.30;;
64710;SDS011;51139;45.626;6.850;2023-07-20T12:24:10;5.22;;;2.63;;
64710;SDS011;51139;45.626;6.850;2023-07-20T12:26:36;3.28;;;2.40;;
64710;SDS011;51139;45.626;6.850;2023-07-20T12:29:01;4.18;;;2.90;;
64710;SDS011;51139;45.626;6.850;2023-07-20T12:31:29;4.97;;;2.53;;
64710;SDS011;51139;45.626;6.850;2023-07-20T12:33:56;3.83;;;2.50;;
64710;SDS011;51139;45.626;6.850;2023-07-20T12:36:23;3.13;;;2.35;;
64710;SDS011;51139;45.626;6.850;2023-07-20T12:38:50;3.30;;;2.60;;
64710;SDS011;51139;45.626;6.850;2023-07-20T12:41:15;4.47;;;2.40;;
64710;SDS011;51139;45.626;6.850;2023-07-20T12:43:41;3.67;;;2.53;;
64710;SDS011;51139;45.626;6.850;2023-07-20T12:46:07;4.20;;;2.47;;
64710;SDS011;51139;45.626;6.850;2023-07-20T12:48:33;4.13;;;2.70;;
64710;SDS011;51139;45.626;6.850;2023-07-20T12:51:05;3.17;;;2.45;;
64710;SDS011;51139;45.626;6.850;2023-07-20T12:53:31;3.83;;;2.30;;
64710;SDS011;51139;45.626;6.850;2023-07-20T12:55:57;3.75;;;2.60;;
64710;SDS011;51139;45.626;6.850;2023-07-20T12:58:23;3.20;;;2.40;;
64710;SDS011;51139;45.626;6.850;2023-07-20T13:00:48;5.05;;;2.70;;
64710;SDS011;51139;45.626;6.850;2023-07-20T13:03:14;4.18;;;2.83;;
64710;SDS011;51139;45.626;6.850;2023-07-20T13:05:41;3.67;;;2.55;;
64710;SDS011;51139;45.626;6.850;2023-07-20T13:08:06;3.60;;;2.50;;
64710;SDS011;51139;45.626;6.850;2023-07-20T13:10:32;3.67;;;2.70;;
64710;SDS011;51139;45.626;6.850;2023-07-20T13:12:57;3.40;;;2.63;;
64710;SDS011;51139;45.626;6.850;2023-07-20T13:15:24;4.22;;;2.25;;
64710;SDS011;51139;45.626;6.850;2023-07-20T13:17:54;3.28;;;2.30;;
64710;SDS011;51139;45.626;6.850;2023-07-20T13:20:20;4.88;;;2.50;;
64710;SDS011;51139;45.626;6.850;2023-07-20T13:22:45;3.50;;;2.20;;
64710;SDS011;51139;45.626;6.850;2023-07-20T13:25:11;3.92;;;2.80;;
64710;SDS011;51139;45.626;6.850;2023-07-20T13:27:36;4.20;;;2.40;;
64710;SDS011;51139;45.626;6.850;2023-07-20T13:30:02;3.95;;;2.75;;
64710;SDS011;51139;45.626;6.850;2023-07-20T13:32:31;4.30;;;2.80;;
64710;SDS011;51139;45.626;6.850;2023-07-20T13:34:57;5.03;;;2.80;;
64710;SDS011;51139;45.626;6.850;2023-07-20T13:37:22;3.50;;;2.60;;
64710;SDS011;51139;45.626;6.850;2023-07-20T13:39:48;4.38;;;2.80;;
64710;SDS011;51139;45.626;6.850;2023-07-20T13:42:13;4.97;;;3.03;;
64710;SDS011;51139;45.626;6.850;2023-07-20T13:44:38;4.93;;;2.80;;
64710;SDS011;51139;45.626;6.850;2023-07-20T13:47:04;3.55;;;2.40;;
64710;SDS011;51139;45.626;6.850;2023-07-20T13:49:30;4.15;;;3.08;;
64710;SDS011;51139;45.626;6.850;2023-07-20T13:51:56;4.35;;;2.97;;
64710;SDS011;51139;45.626;6.850;2023-07-20T13:54:22;4.63;;;3.00;;
64710;SDS011;51139;45.626;6.850;2023-07-20T13:56:48;4.65;;;3.10;;
64710;SDS011;51139;45.626;6.850;2023-07-20T13:59:13;3.67;;;2.72;;
64710;SDS011;51139;45.626;6.850;2023-07-20T14:01:38;4.35;;;2.80;;
64710;SDS011;51139;45.626;6.850;2023-07-20T14:04:04;5.50;;;2.95;;
64710;SDS011;51139;45.626;6.850;2023-07-20T14:06:30;7.15;;;3.00;;
64710;SDS011;51139;45.626;6.850;2023-07-20T14:08:56;4.95;;;2.53;;
64710;SDS011;51139;45.626;6.850;2023-07-20T14:11:21;4.95;;;2.53;;
64710;SDS011;51139;45.626;6.850;2023-07-20T14:13:47;5.03;;;2.80;;
64710;SDS011;51139;45.626;6.850;2023-07-20T14:16:13;4.95;;;3.05;;
64710;SDS011;51139;45.626;6.850;2023-07-20T14:18:38;5.95;;;3.15;;
64710;SDS011;51139;45.626;6.850;2023-07-20T14:21:03;4.63;;;3.20;;
64710;SDS011;51139;45.626;6.850;2023-07-20T14:23:30;8.25;;;3.13;;
64710;SDS011;51139;45.626;6.850;2023-07-20T14:25:55;4.90;;;3.13;;
64710;SDS011;51139;45.626;6.850;2023-07-20T14:28:21;4.60;;;3.10;;
64710;SDS011;51139;45.626;6.850;2023-07-20T14:30:46;5.13;;;3.00;;
64710;SDS011;51139;45.626;6.850;2023-07-20T14:33:12;4.15;;;2.90;;
64710;SDS011;51139;45.626;6.850;2023-07-20T14:35:37;5.55;;;3.05;;
64710;SDS011;51139;45.626;6.850;2023-07-20T14:38:02;7.03;;;2.85;;
64710;SDS011;51139;45.626;6.850;2023-07-20T14:40:28;4.47;;;3.28;;
64710;SDS011;51139;45.626;6.850;2023-07-20T14:42:54;4.22;;;2.90;;
64710;SDS011;51139;45.626;6.850;2023-07-20T14:45:20;5.15;;;3.17;;
64710;SDS011;51139;45.626;6.850;2023-07-20T14:47:45;3.88;;;2.63;;
64710;SDS011;51139;45.626;6.850;2023-07-20T14:50:14;4.35;;;2.65;;
64710;SDS011;51139;45.626;6.850;2023-07-20T14:52:39;5.35;;;2.95;;
64710;SDS011;51139;45.626;6.850;2023-07-20T14:55:04;4.80;;;3.20;;
64710;SDS011;51139;45.626;6.850;2023-07-20T14:57:30;4.95;;;2.95;;